createdAt,value
2022-11-17T00:00:44.081Z,78.64
2022-11-17T00:03:16.201Z,78.65
2022-11-17T00:05:44.960Z,78.53
2022-11-17T00:08:13.414Z,78.77
2022-11-17T00:10:41.589Z,78.86
2022-11-17T00:13:29.838Z,78.90
2022-11-17T00:15:58.006Z,78.89
2022-11-17T00:18:44.624Z,79.07
2022-11-17T00:21:19.381Z,78.97
2022-11-17T00:23:48.463Z,78.71
2022-11-17T00:26:19.271Z,78.84
2022-11-17T00:28:48.090Z,78.97
2022-11-17T00:31:34.971Z,79.07
2022-11-17T00:34:05.916Z,79.04
2022-11-17T00:36:45.860Z,79.05
2022-11-17T00:39:15.571Z,78.99
2022-11-17T00:41:44.335Z,79.13
2022-11-17T00:44:13.284Z,78.87
2022-11-17T00:46:42.141Z,78.93
2022-11-17T00:49:11.703Z,79.11
2022-11-17T00:51:39.816Z,79.08
2022-11-17T00:54:11.371Z,78.99
2022-11-17T00:56:40.113Z,79.10
2022-11-17T00:59:08.258Z,79.17
2022-11-17T01:01:37.355Z,79.07
2022-11-17T01:04:06.935Z,78.96
2022-11-17T01:06:39.509Z,79.01
2022-11-17T01:09:15.642Z,79.01
2022-11-17T01:11:44.823Z,79.04
2022-11-17T01:14:22.461Z,79.17
2022-11-17T01:16:51.299Z,79.15
2022-11-17T01:19:19.935Z,78.97
2022-11-17T01:21:48.519Z,78.79
2022-11-17T01:24:17.512Z,79.01
2022-11-17T01:26:46.645Z,78.94
2022-11-17T01:29:17.412Z,78.92
2022-11-17T01:31:49.713Z,78.86
2022-11-17T01:34:18.432Z,78.96
2022-11-17T01:37:05.413Z,79.09
2022-11-17T01:39:33.690Z,79.02
2022-11-17T01:42:13.229Z,78.88
2022-11-17T01:44:50.414Z,78.81
2022-11-17T01:47:43.372Z,79.03
2022-11-17T01:50:17.072Z,79.14
2022-11-17T01:52:46.886Z,79.25
2022-11-17T01:55:15.361Z,79.10
2022-11-17T01:58:02.474Z,79.21
2022-11-17T02:00:30.853Z,78.69
2022-11-17T02:02:59.365Z,78.97
2022-11-17T02:05:53.108Z,79.07
2022-11-17T02:08:24.560Z,78.99
2022-11-17T02:10:53.941Z,79.08
2022-11-17T02:13:22.632Z,79.19
2022-11-17T02:15:50.922Z,79.03
2022-11-17T02:18:19.711Z,78.74
2022-11-17T02:21:19.223Z,78.92
2022-11-17T02:24:02.315Z,79.04
2022-11-17T02:26:41.065Z,79.07
2022-11-17T02:29:18.147Z,78.91
2022-11-17T02:32:07.517Z,78.91
2022-11-17T02:34:50.643Z,78.97
2022-11-17T02:37:26.394Z,78.89
2022-11-17T02:40:02.767Z,78.70
2022-11-17T02:42:55.404Z,78.60
2022-11-17T02:45:40.272Z,78.82
2022-11-17T02:48:17.046Z,78.91
2022-11-17T02:50:49.110Z,78.91
2022-11-17T02:53:19.054Z,78.94
2022-11-17T02:55:52.319Z,78.84
2022-11-17T02:58:21.612Z,78.76
2022-11-17T03:01:11.340Z,79.01
2022-11-17T03:03:51.656Z,79.12
2022-11-17T03:06:24.948Z,79.14
2022-11-17T03:09:00.290Z,79.06
2022-11-17T03:11:44.949Z,78.95
2022-11-17T03:14:39.645Z,79.05
2022-11-17T03:17:17.454Z,79.17
2022-11-17T03:19:53.301Z,78.78
2022-11-17T03:22:44.204Z,78.98
2022-11-17T03:25:17.889Z,78.90
2022-11-17T03:27:51.203Z,79.11
2022-11-17T03:30:22.550Z,79.19
2022-11-17T03:32:56.149Z,79.14
2022-11-17T03:35:32.414Z,79.17
2022-11-17T03:38:07.966Z,78.83
2022-11-17T03:40:39.820Z,78.88
2022-11-17T03:43:09.530Z,79.08
2022-11-17T03:45:45.280Z,78.93
2022-11-17T03:48:20.928Z,78.71
2022-11-17T03:50:55.144Z,78.93
2022-11-17T03:53:24.349Z,78.91
2022-11-17T03:56:08.389Z,78.78
2022-11-17T03:58:46.290Z,78.50
2022-11-17T04:01:15.342Z,78.61
2022-11-17T04:03:43.455Z,78.86
2022-11-17T04:06:11.631Z,78.86
2022-11-17T04:08:39.702Z,78.79
2022-11-17T04:11:26.205Z,78.79
2022-11-17T04:14:13.116Z,78.75
2022-11-17T04:16:41.189Z,78.68
2022-11-17T04:19:09.361Z,78.51
2022-11-17T04:21:37.444Z,78.59
2022-11-17T04:24:06.230Z,78.86
2022-11-17T04:26:52.725Z,78.55
2022-11-17T04:29:20.796Z,78.56
2022-11-17T04:31:48.970Z,78.43
2022-11-17T04:34:17.041Z,78.43
2022-11-17T04:36:45.317Z,78.52
2022-11-17T04:39:15.130Z,78.59
2022-11-17T04:42:02.249Z,78.40
2022-11-17T04:44:32.369Z,78.64
2022-11-17T04:47:03.320Z,78.60
2022-11-17T04:49:32.811Z,78.52
2022-11-17T04:52:01.393Z,78.33
2022-11-17T04:54:29.669Z,78.59
2022-11-17T04:56:57.972Z,78.53
2022-11-17T04:59:26.326Z,78.34
2022-11-17T05:01:54.451Z,78.29
2022-11-17T05:04:41.105Z,78.39
2022-11-17T05:07:09.572Z,78.49
2022-11-17T05:09:37.861Z,78.28
2022-11-17T05:12:25.796Z,78.28
2022-11-17T05:14:53.868Z,78.14
2022-11-17T05:17:21.940Z,78.09
2022-11-17T05:19:50.119Z,78.04
2022-11-17T05:22:40.431Z,77.99
2022-11-17T05:25:09.612Z,78.03
2022-11-17T05:27:38.187Z,78.11
2022-11-17T05:30:08.567Z,78.21
2022-11-17T05:32:36.893Z,78.20
2022-11-17T05:35:05.781Z,78.12
2022-11-17T05:37:33.849Z,77.80
2022-11-17T05:40:01.925Z,77.89
2022-11-17T05:42:30.096Z,77.97
2022-11-17T05:44:58.167Z,77.99
2022-11-17T05:47:26.344Z,78.02
2022-11-17T05:49:54.412Z,78.16
2022-11-17T05:52:22.484Z,77.83
2022-11-17T05:54:50.682Z,77.96
2022-11-17T05:57:27.709Z,78.06
2022-11-17T06:00:01.853Z,77.80
2022-11-17T06:02:35.146Z,77.65
2022-11-17T06:05:03.834Z,77.78
2022-11-17T06:07:32.589Z,77.90
2022-11-17T06:10:00.898Z,77.88
2022-11-17T06:12:28.966Z,77.73
2022-11-17T06:14:57.039Z,77.92
2022-11-17T06:17:31.664Z,78.09
2022-11-17T06:20:16.018Z,78.10
2022-11-17T06:22:48.287Z,77.69
2022-11-17T06:25:19.742Z,78.05
2022-11-17T06:27:50.261Z,78.05
2022-11-17T06:30:19.151Z,77.69
2022-11-17T06:32:50.198Z,78.01
2022-11-17T06:35:18.371Z,77.81
2022-11-17T06:37:46.445Z,77.95
2022-11-17T06:40:15.260Z,78.17
2022-11-17T06:43:02.244Z,78.14
2022-11-17T06:45:41.170Z,77.74
2022-11-17T06:48:10.881Z,78.05
2022-11-17T06:50:39.159Z,78.07
2022-11-17T06:53:09.787Z,78.12
2022-11-17T06:55:38.226Z,78.25
2022-11-17T06:58:09.176Z,78.25
2022-11-17T07:00:38.054Z,77.96
2022-11-17T07:03:09.376Z,78.01
2022-11-17T07:05:40.241Z,77.94
2022-11-17T07:08:09.426Z,78.19
2022-11-17T07:10:38.135Z,78.13
2022-11-17T07:13:06.237Z,78.14
2022-11-17T07:15:34.313Z,78.42
2022-11-17T07:18:02.380Z,78.55
2022-11-17T07:20:30.451Z,78.56
2022-11-17T07:23:00.372Z,78.29
2022-11-17T07:25:28.435Z,78.23
2022-11-17T07:28:00.481Z,78.01
2022-11-17T07:30:28.984Z,77.95
2022-11-17T07:33:00.210Z,78.12
2022-11-17T07:35:28.710Z,78.28
2022-11-17T07:37:58.726Z,78.17
2022-11-17T07:40:27.106Z,77.97
2022-11-17T07:42:55.868Z,78.05
2022-11-17T07:45:28.662Z,78.03
2022-11-17T07:48:02.068Z,78.08
2022-11-17T07:50:30.646Z,77.83
2022-11-17T07:52:59.134Z,77.90
2022-11-17T07:55:27.311Z,78.03
2022-11-17T07:57:57.015Z,77.94
2022-11-17T08:00:26.728Z,77.93
2022-11-17T08:02:55.300Z,78.17
2022-11-17T08:05:24.589Z,78.18
2022-11-17T08:07:56.982Z,77.57
2022-11-17T08:10:27.311Z,77.82
2022-11-17T08:12:55.376Z,77.70
2022-11-17T08:15:23.549Z,77.79
2022-11-17T08:17:53.976Z,77.97
2022-11-17T08:20:23.763Z,77.89
2022-11-17T08:22:53.289Z,77.75
2022-11-17T08:25:23.105Z,77.74
2022-11-17T08:27:54.993Z,77.79
2022-11-17T08:30:23.069Z,77.59
2022-11-17T08:32:53.871Z,77.73
2022-11-17T08:35:24.607Z,77.59
2022-11-17T08:37:53.380Z,77.72
2022-11-17T08:40:21.966Z,77.87
2022-11-17T08:43:00.434Z,77.57
2022-11-17T08:45:29.280Z,77.91
2022-11-17T08:47:57.966Z,77.86
2022-11-17T08:50:26.446Z,77.69
2022-11-17T08:52:54.529Z,77.88
2022-11-17T08:55:22.742Z,77.33
2022-11-17T08:57:50.969Z,77.72
2022-11-17T09:00:21.926Z,77.59
2022-11-17T09:02:50.079Z,77.84
2022-11-17T09:05:18.151Z,77.74
2022-11-17T09:07:46.334Z,77.74
2022-11-17T09:10:14.600Z,77.90
2022-11-17T09:12:43.192Z,77.80
2022-11-17T09:15:11.460Z,77.61
2022-11-17T09:17:40.557Z,77.53
2022-11-17T09:20:09.446Z,77.72
2022-11-17T09:22:37.517Z,77.42
2022-11-17T09:25:11.863Z,77.86
2022-11-17T09:27:41.855Z,77.77
2022-11-17T09:30:11.233Z,77.84
2022-11-17T09:32:39.427Z,77.72
2022-11-17T09:35:09.504Z,77.81
2022-11-17T09:37:37.618Z,77.64
2022-11-17T09:40:07.185Z,77.94
2022-11-17T09:42:40.116Z,77.85
2022-11-17T09:45:32.034Z,77.84
2022-11-17T09:48:38.855Z,77.68
2022-11-17T09:51:02.384Z,78.10
2022-11-17T09:54:18.891Z,78.21
2022-11-17T09:56:47.778Z,77.84
2022-11-17T09:59:21.180Z,77.70
2022-11-17T10:01:49.267Z,77.36
2022-11-17T10:04:18.727Z,77.71
2022-11-17T10:06:50.697Z,77.78
2022-11-17T10:09:36.282Z,77.66
2022-11-17T10:12:18.513Z,77.91
2022-11-17T10:14:48.414Z,77.64
2022-11-17T10:17:17.172Z,77.54
2022-11-17T10:19:45.994Z,77.66
2022-11-17T10:22:37.311Z,77.44
2022-11-17T10:25:40.399Z,77.57
2022-11-17T10:28:24.131Z,77.74
2022-11-17T10:31:00.297Z,77.55
2022-11-17T10:33:39.513Z,77.70
2022-11-17T10:36:31.666Z,77.37
2022-11-17T10:39:00.956Z,77.66
2022-11-17T10:41:42.252Z,77.48
2022-11-17T10:44:22.811Z,77.67
2022-11-17T10:47:02.581Z,77.51
2022-11-17T10:49:34.938Z,77.53
2022-11-17T10:52:09.143Z,77.74
2022-11-17T10:54:38.439Z,77.63
2022-11-17T10:57:12.769Z,77.46
2022-11-17T10:59:57.128Z,77.66
2022-11-17T11:02:33.994Z,77.45
2022-11-17T11:05:17.732Z,77.63
2022-11-17T11:08:19.092Z,77.49
2022-11-17T11:11:16.235Z,77.40
2022-11-17T11:14:16.051Z,77.83
2022-11-17T11:16:49.550Z,77.63
2022-11-17T11:19:20.384Z,77.61
2022-11-17T11:22:06.991Z,77.40
2022-11-17T11:24:40.490Z,77.53
2022-11-17T11:27:46.551Z,77.57
2022-11-17T11:30:19.524Z,77.81
2022-11-17T11:33:39.220Z,77.73
2022-11-17T11:36:36.372Z,77.92
2022-11-17T11:39:29.032Z,77.93
2022-11-17T11:42:09.481Z,77.97
2022-11-17T11:44:52.604Z,77.66
2022-11-17T11:47:29.380Z,77.67
2022-11-17T11:50:09.437Z,77.82
2022-11-17T11:52:44.978Z,77.54
2022-11-17T11:55:29.742Z,77.01
2022-11-17T11:58:17.370Z,77.24
2022-11-17T12:00:48.206Z,77.35
2022-11-17T12:03:36.812Z,77.50
2022-11-17T12:06:42.521Z,77.35
2022-11-17T12:09:44.070Z,77.28
2022-11-17T12:12:29.037Z,77.29
2022-11-17T12:15:20.765Z,77.34
2022-11-17T12:18:02.559Z,77.32
2022-11-17T12:20:40.960Z,77.32
2022-11-17T12:23:48.260Z,77.51
2022-11-17T12:26:28.792Z,77.59
2022-11-17T12:29:21.882Z,77.81
2022-11-17T12:31:52.510Z,77.83
2022-11-17T12:34:23.756Z,77.66
2022-11-17T12:37:26.665Z,77.71
2022-11-17T12:39:58.299Z,77.30
2022-11-17T12:42:28.112Z,77.55
2022-11-17T12:45:10.729Z,77.65
2022-11-17T12:48:04.838Z,77.54
2022-11-17T12:50:53.050Z,77.52
2022-11-17T12:53:49.797Z,77.68
2022-11-17T12:56:33.435Z,77.57
2022-11-17T12:59:24.129Z,77.56
2022-11-17T13:02:11.452Z,77.24
2022-11-17T13:04:52.427Z,77.66
2022-11-17T13:07:26.260Z,77.74
2022-11-17T13:09:59.325Z,77.59
2022-11-17T13:12:30.440Z,77.55
2022-11-17T13:15:00.585Z,77.52
2022-11-17T13:17:41.661Z,77.84
2022-11-17T13:20:23.569Z,77.10
2022-11-17T13:23:10.263Z,77.09
2022-11-17T13:25:38.437Z,77.41
2022-11-17T13:28:06.509Z,77.57
2022-11-17T13:30:34.784Z,77.24
2022-11-17T13:33:04.418Z,77.24
2022-11-17T13:35:35.846Z,77.30
2022-11-17T13:38:19.592Z,77.13
2022-11-17T13:40:50.108Z,77.61
2022-11-17T13:43:23.505Z,77.66
2022-11-17T13:45:53.420Z,77.57
2022-11-17T13:48:32.754Z,77.54
2022-11-17T13:51:33.289Z,77.75
2022-11-17T13:54:15.615Z,77.64
2022-11-17T13:56:47.062Z,77.53
2022-11-17T13:59:41.429Z,77.48
2022-11-17T14:02:15.438Z,77.51
2022-11-17T14:05:09.536Z,77.25
2022-11-17T14:07:39.757Z,76.98
2022-11-17T14:10:20.313Z,76.72
2022-11-17T14:12:50.840Z,76.93
2022-11-17T14:15:23.208Z,77.03
2022-11-17T14:17:54.350Z,77.01
2022-11-17T14:20:25.289Z,77.05
2022-11-17T14:23:21.420Z,77.43
2022-11-17T14:25:50.411Z,77.38
2022-11-17T14:28:21.219Z,76.94
2022-11-17T14:30:57.715Z,77.08
2022-11-17T14:33:26.197Z,76.99
2022-11-17T14:35:57.227Z,77.35
2022-11-17T14:38:26.022Z,77.33
2022-11-17T14:40:54.198Z,77.18
2022-11-17T14:43:22.986Z,77.26
2022-11-17T14:45:51.252Z,77.16
2022-11-17T14:48:20.410Z,77.08
2022-11-17T14:50:55.290Z,77.26
2022-11-17T14:53:24.097Z,77.06
2022-11-17T14:55:52.657Z,76.87
2022-11-17T14:58:20.971Z,77.00
2022-11-17T15:00:49.113Z,77.22
2022-11-17T15:03:17.205Z,77.13
2022-11-17T15:05:46.485Z,76.91
2022-11-17T15:08:14.860Z,76.88
2022-11-17T15:10:44.775Z,76.95
2022-11-17T15:13:12.867Z,76.86
2022-11-17T15:15:40.916Z,76.84
2022-11-17T15:18:12.484Z,76.70
2022-11-17T15:20:40.541Z,76.82
2022-11-17T15:23:08.820Z,76.83
2022-11-17T15:25:39.215Z,77.11
2022-11-17T15:28:07.314Z,77.16
2022-11-17T15:30:35.487Z,77.09
2022-11-17T15:33:03.663Z,76.95
2022-11-17T15:35:31.850Z,77.22
2022-11-17T15:38:00.014Z,77.12
2022-11-17T15:40:28.183Z,77.05
2022-11-17T15:42:56.254Z,77.02
2022-11-17T15:45:24.326Z,77.05
2022-11-17T15:47:52.396Z,76.97
2022-11-17T15:50:20.469Z,77.14
2022-11-17T15:53:03.654Z,77.29
2022-11-17T15:55:35.395Z,76.98
2022-11-17T15:58:03.729Z,77.08
2022-11-17T16:00:34.048Z,77.12
2022-11-17T16:03:02.408Z,76.83
2022-11-17T16:05:30.502Z,77.10
2022-11-17T16:07:58.577Z,76.65
2022-11-17T16:10:27.591Z,76.85
2022-11-17T16:12:56.675Z,77.11
2022-11-17T16:15:25.044Z,77.23
2022-11-17T16:17:53.418Z,77.24
2022-11-17T16:20:21.621Z,77.25
2022-11-17T16:22:49.970Z,76.76
2022-11-17T16:25:18.041Z,76.80
2022-11-17T16:27:46.113Z,77.15
2022-11-17T16:30:14.979Z,76.90
2022-11-17T16:32:42.993Z,76.92
2022-11-17T16:35:11.016Z,76.75
2022-11-17T16:37:39.216Z,76.71
2022-11-17T16:40:08.211Z,77.15
2022-11-17T16:42:36.976Z,76.69
2022-11-17T16:45:05.878Z,76.77
2022-11-17T16:47:33.959Z,76.81
2022-11-17T16:50:03.874Z,76.86
2022-11-17T16:52:34.822Z,76.67
2022-11-17T16:55:05.101Z,76.80
2022-11-17T16:57:33.620Z,76.27
2022-11-17T17:00:02.207Z,76.30
2022-11-17T17:02:30.451Z,76.47
2022-11-17T17:04:58.761Z,76.56
2022-11-17T17:07:27.043Z,76.65
2022-11-17T17:09:55.203Z,76.69
2022-11-17T17:12:23.785Z,76.76
2022-11-17T17:14:51.857Z,76.79
2022-11-17T17:17:19.928Z,76.81
2022-11-17T17:19:47.999Z,76.66
2022-11-17T17:22:16.073Z,76.35
2022-11-17T17:24:44.141Z,76.41
2022-11-17T17:27:12.213Z,76.56
2022-11-17T17:29:40.283Z,76.52
2022-11-17T17:32:08.456Z,76.43
2022-11-17T17:34:36.530Z,76.60
2022-11-17T17:37:04.803Z,76.67
2022-11-17T17:39:33.900Z,76.63
2022-11-17T17:42:01.972Z,76.58
2022-11-17T17:44:30.144Z,76.71
2022-11-17T17:46:58.631Z,76.33
2022-11-17T17:49:26.696Z,76.52
2022-11-17T17:51:54.873Z,76.32
2022-11-17T17:54:24.222Z,76.69
2022-11-17T17:56:53.071Z,76.79
2022-11-17T17:59:21.242Z,76.76
2022-11-17T18:01:49.850Z,76.88
2022-11-17T18:04:18.093Z,76.57
2022-11-17T18:06:48.338Z,76.44
2022-11-17T18:09:20.529Z,76.47
2022-11-17T18:11:50.988Z,76.29
2022-11-17T18:14:24.516Z,76.17
2022-11-17T18:16:54.053Z,76.24
2022-11-17T18:19:25.878Z,76.60
2022-11-17T18:21:59.887Z,76.44
2022-11-17T18:24:28.569Z,76.44
2022-11-17T18:26:56.744Z,76.67
2022-11-17T18:29:25.123Z,76.71
2022-11-17T18:31:53.199Z,76.65
2022-11-17T18:34:25.690Z,76.87
2022-11-17T18:36:58.454Z,76.47
2022-11-17T18:39:28.467Z,76.40
2022-11-17T18:41:56.539Z,76.37
2022-11-17T18:44:24.816Z,76.51
2022-11-17T18:46:55.038Z,76.54
2022-11-17T18:49:26.486Z,76.50
2022-11-17T18:51:54.557Z,76.61
2022-11-17T18:54:22.628Z,76.59
2022-11-17T18:56:50.700Z,76.45
2022-11-17T18:59:19.135Z,76.00
2022-11-17T19:01:47.768Z,76.01
2022-11-17T19:04:16.042Z,75.83
2022-11-17T19:06:44.213Z,75.97
2022-11-17T19:09:13.681Z,75.79
2022-11-17T19:11:42.404Z,76.20
2022-11-17T19:14:10.477Z,76.22
2022-11-17T19:16:44.634Z,76.03
2022-11-17T19:19:14.644Z,76.14
2022-11-17T19:21:43.193Z,76.13
2022-11-17T19:24:11.669Z,76.12
2022-11-17T19:26:40.151Z,76.19
2022-11-17T19:29:16.650Z,76.20
2022-11-17T19:31:46.431Z,76.07
2022-11-17T19:34:15.862Z,75.76
2022-11-17T19:36:45.033Z,75.92
2022-11-17T19:39:14.522Z,76.29
2022-11-17T19:41:45.360Z,76.01
2022-11-17T19:44:14.059Z,75.98
2022-11-17T19:46:43.522Z,75.95
2022-11-17T19:49:12.565Z,76.32
2022-11-17T19:51:42.067Z,76.11
2022-11-17T19:54:12.588Z,76.38
2022-11-17T19:56:40.866Z,76.19
2022-11-17T19:59:15.212Z,75.84
2022-11-17T20:01:45.507Z,76.05
2022-11-17T20:04:13.894Z,75.97
2022-11-17T20:06:42.365Z,75.97
2022-11-17T20:09:14.328Z,75.87
2022-11-17T20:11:43.337Z,76.33
2022-11-17T20:14:11.596Z,76.22
2022-11-17T20:16:39.872Z,76.34
2022-11-17T20:19:08.969Z,76.06
2022-11-17T20:21:37.038Z,76.32
2022-11-17T20:24:05.726Z,76.21
2022-11-17T20:26:35.826Z,76.13
2022-11-17T20:29:03.848Z,75.84
2022-11-17T20:31:34.041Z,76.07
2022-11-17T20:34:04.433Z,76.47
2022-11-17T20:36:34.776Z,75.89
2022-11-17T20:39:06.133Z,75.67
2022-11-17T20:41:34.684Z,75.79
2022-11-17T20:44:04.127Z,76.06
2022-11-17T20:46:32.402Z,75.87
2022-11-17T20:49:00.568Z,75.93
2022-11-17T20:51:28.643Z,76.20
2022-11-17T20:53:56.711Z,76.11
2022-11-17T20:56:24.884Z,75.84
2022-11-17T20:58:53.264Z,75.79
2022-11-17T21:01:24.079Z,76.09
2022-11-17T21:03:52.684Z,75.98
2022-11-17T21:06:23.288Z,76.08
2022-11-17T21:08:51.820Z,75.90
2022-11-17T21:11:40.855Z,76.28
2022-11-17T21:14:11.796Z,76.20
2022-11-17T21:16:42.630Z,75.83
2022-11-17T21:19:10.702Z,75.83
2022-11-17T21:21:39.182Z,75.27
2022-11-17T21:24:08.157Z,75.28
2022-11-17T21:26:36.454Z,75.81
2022-11-17T21:29:06.940Z,75.95
2022-11-17T21:31:35.666Z,76.03
2022-11-17T21:34:06.811Z,76.22
2022-11-17T21:36:36.091Z,76.02
2022-11-17T21:39:04.695Z,76.09
2022-11-17T21:41:38.628Z,75.90
2022-11-17T21:44:06.783Z,76.25
2022-11-17T21:46:36.625Z,76.10
2022-11-17T21:49:05.073Z,76.30
2022-11-17T21:51:38.715Z,76.14
2022-11-17T21:54:10.080Z,76.28
2022-11-17T21:56:38.601Z,75.95
2022-11-17T21:59:11.491Z,75.96
2022-11-17T22:01:40.236Z,76.11
2022-11-17T22:04:08.957Z,76.02
2022-11-17T22:06:38.666Z,76.08
2022-11-17T22:09:06.844Z,75.86
2022-11-17T22:11:38.644Z,76.05
2022-11-17T22:14:19.398Z,75.92
2022-11-17T22:16:53.071Z,76.08
2022-11-17T22:19:23.199Z,76.61
2022-11-17T22:21:53.771Z,76.35
2022-11-17T22:24:22.412Z,76.65
2022-11-17T22:26:51.909Z,76.41
2022-11-17T22:29:22.408Z,76.38
2022-11-17T22:31:51.504Z,76.20
2022-11-17T22:34:19.707Z,76.24
2022-11-17T22:36:47.778Z,76.12
2022-11-17T22:39:16.881Z,76.16
2022-11-17T22:41:45.148Z,76.30
2022-11-17T22:44:14.682Z,76.12
2022-11-17T22:46:46.004Z,76.46
2022-11-17T22:49:14.331Z,76.26
2022-11-17T22:52:01.497Z,76.30
2022-11-17T22:54:30.706Z,75.93
2022-11-17T22:56:59.288Z,76.00
2022-11-17T22:59:28.991Z,76.03
2022-11-17T23:01:57.316Z,76.30
2022-11-17T23:04:25.540Z,76.15
2022-11-17T23:06:53.784Z,76.11
2022-11-17T23:09:22.094Z,75.96
2022-11-17T23:11:50.169Z,76.31
2022-11-17T23:14:19.287Z,76.18
2022-11-17T23:16:47.432Z,75.67
2022-11-17T23:19:16.120Z,76.32
2022-11-17T23:21:44.599Z,75.80
2022-11-17T23:24:14.819Z,76.06
2022-11-17T23:26:43.403Z,76.03
2022-11-17T23:29:11.474Z,76.12
2022-11-17T23:31:40.060Z,75.80
2022-11-17T23:34:10.269Z,75.53
2022-11-17T23:36:38.662Z,75.72
2022-11-17T23:39:06.831Z,76.14
2022-11-17T23:41:35.007Z,76.20
2022-11-17T23:44:03.386Z,76.41
2022-11-17T23:46:31.557Z,76.10
2022-11-17T23:48:59.832Z,76.29
2022-11-17T23:51:30.018Z,76.24
2022-11-17T23:53:59.881Z,75.97
2022-11-17T23:56:28.001Z,75.95
2022-11-17T23:58:56.111Z,75.75
